Time;durP1;ratioP1;P1;durP2;ratioP2;P2;SDS_P1;SDS_P2;PMS_P1;PMS_P2;Temp;Humidity;BMP_temperature;BMP_pressure;BME280_temperature;BME280_humidity;BME280_pressure;Samples;Min_cycle;Max_cycle;Signal;HPM_P1;HPM_P2
2024/01/23 00:02:09;;;;;;;;;;;;;;;12.87;50.73;100678.25;4976523;28;6970;-76
2024/01/23 00:04:35;;;;;;;;;;;;;;;12.86;50.13;100684.22;4970254;28;6935;-75
2024/01/23 00:07:00;;;;;;;;;;;;;;;12.85;50.24;100697.00;4981607;28;6752;-75
2024/01/23 00:09:27;;;;;;;;;;;;;;;12.83;50.58;100694.34;4977340;28;6776;-75
2024/01/23 00:11:54;;;;;;;;;;;;;;;12.82;50.35;100705.47;4978571;28;7840;-75
2024/01/23 00:14:19;;;;;;;;;;;;;;;12.83;50.33;100716.66;4977906;28;6792;-75
2024/01/23 00:16:45;;;;;;;;;;;;;;;12.82;50.85;100728.63;4979827;28;6839;-75
2024/01/23 00:19:11;;;;;;;;;;;;;;;12.80;50.51;100735.38;4979222;28;6950;-75
2024/01/23 00:21:37;;;;;;;;;;;;;;;12.80;50.74;100725.09;4989157;28;6953;-75
2024/01/23 00:24:04;;;;;;;;;;;;;;;12.76;50.46;100725.78;4981805;28;6795;-75
2024/01/23 00:26:29;;;;;;;;;;;;;;;12.71;49.97;100742.69;4982232;28;6931;-76
2024/01/23 00:28:55;;;;;;;;;;;;;;;12.63;50.38;100755.22;4967441;28;8391;-74
2024/01/23 00:31:21;;;;;;;;;;;;;;;12.56;50.80;100764.34;4982195;28;6909;-75
2024/01/23 00:33:46;;;;;;;;;;;;;;;12.51;50.85;100755.53;4985215;28;6904;-75
2024/01/23 00:57:32;;;;;;;;;;;;;;;12.37;50.88;100803.72;4971931;23;7041;-85
2024/01/23 01:55:51;;;;;;;;;;;;;;;12.58;50.06;100921.25;4998332;28;7015;-74
2024/01/23 01:58:19;;;;;;;;;;;;;;;12.58;50.38;100924.72;4974350;28;6800;-75
2024/01/23 02:00:45;;;;;;;;;;;;;;;12.59;50.50;100929.03;4971907;28;6959;-76
2024/01/23 02:03:11;;;;;;;;;;;;;;;12.60;50.20;100917.94;4957374;28;7857;-76
2024/01/23 02:05:37;;;;;;;;;;;;;;;12.58;49.41;100924.72;4968899;28;7047;-76
2024/01/23 02:08:03;;;;;;;;;;;;;;;12.56;49.16;100923.75;4970813;28;7768;-76
2024/01/23 02:10:28;;;;;;;;;;;;;;;12.55;49.30;100927.13;4958584;28;7025;-76
2024/01/23 02:12:54;;;;;;;;;;;;;;;12.53;49.70;100933.88;4955761;28;6942;-75
2024/01/23 02:15:20;;;;;;;;;;;;;;;12.53;49.84;100943.31;4974261;28;7389;-75
2024/01/23 02:17:45;;;;;;;;;;;;;;;12.48;49.14;100951.66;4956544;28;6971;-75
2024/01/23 02:20:11;;;;;;;;;;;;;;;12.47;49.86;100969.59;4964083;28;6795;-76
2024/01/23 02:22:37;;;;;;;;;;;;;;;12.45;49.14;100971.19;4957970;28;7138;-76
2024/01/23 02:25:03;;;;;;;;;;;;;;;12.42;49.28;100971.94;4952211;28;7162;-76
2024/01/23 02:27:29;;;;;;;;;;;;;;;12.42;49.68;100976.19;4952900;28;7122;-76
2024/01/23 02:29:55;;;;;;;;;;;;;;;12.42;49.62;100982.22;4972532;28;6776;-76
2024/01/23 02:32:20;;;;;;;;;;;;;;;12.41;48.93;100980.47;4971400;28;6983;-76
2024/01/23 02:34:46;;;;;;;;;;;;;;;12.40;49.41;100977.81;4978421;28;6975;-76
2024/01/23 02:37:11;;;;;;;;;;;;;;;12.38;49.20;100980.28;4954335;28;7418;-76
2024/01/23 02:39:37;;;;;;;;;;;;;;;12.37;49.70;100986.25;4973922;28;6929;-76
2024/01/23 02:42:03;;;;;;;;;;;;;;;12.36;49.94;100987.03;4972796;28;6919;-76
2024/01/23 02:44:29;;;;;;;;;;;;;;;12.32;49.89;100996.28;4940904;28;7407;-76
2024/01/23 02:46:54;;;;;;;;;;;;;;;12.32;49.33;101000.56;4971966;28;6788;-76
2024/01/23 02:49:20;;;;;;;;;;;;;;;12.30;49.96;101008.19;4969865;28;6948;-76
2024/01/23 02:51:46;;;;;;;;;;;;;;;12.30;50.06;101015.91;4971886;28;6963;-76
2024/01/23 02:54:11;;;;;;;;;;;;;;;12.29;49.50;101010.66;4968924;28;6784;-76
2024/01/23 02:56:37;;;;;;;;;;;;;;;12.27;50.20;101018.31;4953393;28;7258;-76
2024/01/23 02:59:02;;;;;;;;;;;;;;;12.28;49.81;101021.75;4968728;28;6792;-76
2024/01/23 03:01:28;;;;;;;;;;;;;;;12.26;49.98;101026.81;4957378;28;6887;-76
2024/01/23 03:03:54;;;;;;;;;;;;;;;12.26;50.15;101036.22;4969097;28;7436;-76
2024/01/23 03:06:19;;;;;;;;;;;;;;;12.25;49.51;101037.91;4944875;28;7239;-76
2024/01/23 03:08:45;;;;;;;;;;;;;;;12.24;49.74;101041.28;4986035;28;6943;-76
2024/01/23 03:11:11;;;;;;;;;;;;;;;12.23;50.03;101044.66;4982791;28;6949;-79
2024/01/23 03:13:36;;;;;;;;;;;;;;;12.20;50.55;101041.94;4969614;28;7344;-76
2024/01/23 03:16:02;;;;;;;;;;;;;;;12.13;49.74;101042.41;5004676;28;6768;-79
2024/01/23 03:18:28;;;;;;;;;;;;;;;12.07;49.37;101041.31;4972240;28;7058;-76
2024/01/23 03:20:53;;;;;;;;;;;;;;;11.97;49.74;101054.41;4977030;28;6832;-79
2024/01/23 03:23:19;;;;;;;;;;;;;;;11.90;50.50;101057.47;4990320;28;6840;-75
2024/01/23 03:25:44;;;;;;;;;;;;;;;11.84;49.77;101068.31;4987321;28;7022;-79
2024/01/23 03:28:10;;;;;;;;;;;;;;;11.77;50.13;101061.06;4987964;28;6788;-78
2024/01/23 03:30:36;;;;;;;;;;;;;;;11.69;50.65;101063.25;5004479;28;7213;-77
2024/01/23 03:33:01;;;;;;;;;;;;;;;11.63;49.95;101089.44;4987583;28;7173;-74
2024/01/23 03:35:27;;;;;;;;;;;;;;;11.57;50.31;101088.22;4986986;28;6776;-78
2024/01/23 03:37:53;;;;;;;;;;;;;;;11.50;50.72;101093.03;4983700;28;6944;-75
2024/01/23 03:40:19;;;;;;;;;;;;;;;11.46;51.04;101100.50;4971810;28;6968;-75
2024/01/23 03:42:45;;;;;;;;;;;;;;;11.42;51.24;101106.22;4989211;28;7335;-78
2024/01/23 03:45:10;;;;;;;;;;;;;;;11.39;50.64;101095.00;4988786;28;7048;-77
2024/01/23 03:47:36;;;;;;;;;;;;;;;11.37;50.63;101095.72;4975818;28;6824;-77
2024/01/23 03:50:03;;;;;;;;;;;;;;;11.30;50.20;101091.91;5002907;28;6930;-77
2024/01/23 03:52:29;;;;;;;;;;;;;;;11.23;50.44;101097.50;4991192;28;6796;-76
2024/01/23 03:54:55;;;;;;;;;;;;;;;11.14;50.95;101097.88;4975730;28;7160;-75
2024/01/23 03:57:21;;;;;;;;;;;;;;;11.07;51.08;101106.00;4965979;28;7182;-78
2024/01/23 03:59:46;;;;;;;;;;;;;;;11.00;51.25;101119.28;4974855;28;6946;-75
2024/01/23 04:02:12;;;;;;;;;;;;;;;10.95;51.32;101132.72;4956734;28;7016;-78
2024/01/23 04:04:41;;;;;;;;;;;;;;;10.89;51.57;101152.88;4974535;28;7011;-75
2024/01/23 04:07:07;;;;;;;;;;;;;;;10.87;51.77;101154.47;4985710;28;7351;-78
2024/01/23 04:09:32;;;;;;;;;;;;;;;10.87;51.72;101159.59;4978653;28;7053;-77
2024/01/23 04:11:58;;;;;;;;;;;;;;;10.86;51.76;101159.50;4991427;28;6772;-76
2024/01/23 04:14:23;;;;;;;;;;;;;;;10.83;51.81;101168.78;4960256;28;7024;-75
2024/01/23 04:16:49;;;;;;;;;;;;;;;10.83;51.52;101168.78;4983610;28;6780;-76
2024/01/23 04:19:15;;;;;;;;;;;;;;;10.82;51.46;101168.72;4959730;28;7168;-76
2024/01/23 04:21:40;;;;;;;;;;;;;;;10.81;51.48;101166.91;4984070;28;6840;-76
2024/01/23 04:24:07;;;;;;;;;;;;;;;10.78;51.68;101159.06;4964835;28;12680;-76
2024/01/23 04:26:33;;;;;;;;;;;;;;;10.74;51.86;101160.56;4977210;28;7230;-76
2024/01/23 04:28:58;;;;;;;;;;;;;;;10.70;51.70;101169.72;4980803;28;6925;-76
2024/01/23 04:31:25;;;;;;;;;;;;;;;10.66;51.50;101172.03;4951474;28;6991;-76
2024/01/23 04:33:52;;;;;;;;;;;;;;;10.62;51.75;101173.53;4969103;28;6931;-76
2024/01/23 04:36:18;;;;;;;;;;;;;;;10.57;51.67;101185.19;4977875;28;6808;-77
2024/01/23 04:38:44;;;;;;;;;;;;;;;10.50;51.44;101183.94;4973942;28;6776;-78
2024/01/23 04:41:10;;;;;;;;;;;;;;;10.47;52.06;101193.09;4979871;28;6836;-78
2024/01/23 04:43:37;;;;;;;;;;;;;;;10.41;51.89;101198.72;4976736;28;7731;-76
2024/01/23 04:46:03;;;;;;;;;;;;;;;10.36;52.04;101201.00;4958018;28;7618;-76
2024/01/23 04:48:29;;;;;;;;;;;;;;;10.31;51.71;101206.63;4968036;28;6957;-76
2024/01/23 04:50:55;;;;;;;;;;;;;;;10.27;51.90;101215.78;4969209;28;7154;-76
2024/01/23 04:53:21;;;;;;;;;;;;;;;10.21;52.12;101213.75;4978920;28;7379;-76
2024/01/23 04:55:46;;;;;;;;;;;;;;;10.17;51.58;101226.25;4983906;28;7011;-76
2024/01/23 04:58:12;;;;;;;;;;;;;;;10.13;51.83;101232.88;4975050;28;6927;-76
2024/01/23 05:00:37;;;;;;;;;;;;;;;10.09;52.01;101241.13;4978726;28;6809;-76
2024/01/23 05:03:03;;;;;;;;;;;;;;;10.06;52.33;101241.84;4981093;28;6915;-76
2024/01/23 05:05:31;;;;;;;;;;;;;;;10.03;52.48;101256.13;4963992;28;7184;-78
2024/01/23 05:07:56;;;;;;;;;;;;;;;10.00;52.50;101262.81;4958948;28;6826;-78
2024/01/23 05:10:22;;;;;;;;;;;;;;;9.98;52.75;101268.63;4966535;28;6760;-77
2024/01/23 05:12:47;;;;;;;;;;;;;;;9.97;52.41;101277.97;4971475;28;7620;-76
2024/01/23 05:15:13;;;;;;;;;;;;;;;9.95;52.10;101284.69;4965035;28;6772;-76
2024/01/23 05:17:39;;;;;;;;;;;;;;;9.91;52.83;101274.13;4984746;28;7115;-76
2024/01/23 05:20:05;;;;;;;;;;;;;;;9.93;52.75;101282.81;4953002;28;7204;-76
2024/01/23 05:22:31;;;;;;;;;;;;;;;9.89;52.32;101273.16;4969079;28;6979;-75
2024/01/23 05:24:56;;;;;;;;;;;;;;;9.89;53.12;101288.53;4972886;28;6939;-76
2024/01/23 05:27:22;;;;;;;;;;;;;;;9.84;53.10;101296.78;4966316;28;6971;-73
2024/01/23 05:29:48;;;;;;;;;;;;;;;9.81;52.97;101294.03;4959454;28;7072;-73
2024/01/23 05:32:13;;;;;;;;;;;;;;;9.79;52.66;101303.28;4989486;28;6792;-73
2024/01/23 05:34:43;;;;;;;;;;;;;;;9.78;52.81;101304.06;4966312;28;7734;-72
2024/01/23 05:37:11;;;;;;;;;;;;;;;9.76;52.78;101307.31;4949613;28;6957;-73
2024/01/23 05:39:38;;;;;;;;;;;;;;;9.74;52.57;101312.31;4950412;28;7243;-73
2024/01/23 05:42:06;;;;;;;;;;;;;;;9.73;53.08;101320.78;4978494;28;6864;-74
2024/01/23 05:44:32;;;;;;;;;;;;;;;9.72;52.57;101321.56;4978418;28;6851;-73
2024/01/23 05:46:58;;;;;;;;;;;;;;;9.72;52.78;101331.81;4960482;28;6792;-75
2024/01/23 05:49:24;;;;;;;;;;;;;;;9.71;52.92;101345.41;4979980;28;7230;-73
2024/01/23 05:51:49;;;;;;;;;;;;;;;9.71;52.81;101353.09;4974833;28;6951;-74
2024/01/23 05:54:15;;;;;;;;;;;;;;;9.69;53.23;101363.22;4956922;28;7144;-72
2024/01/23 05:56:41;;;;;;;;;;;;;;;9.69;53.17;101367.47;4968426;28;7207;-73
2024/01/23 05:59:06;;;;;;;;;;;;;;;9.68;53.68;101361.44;4976047;28;6836;-73
2024/01/23 06:01:33;;;;;;;;;;;;;;;9.70;52.73;101390.59;4971222;28;6780;-74
2024/01/23 06:03:59;;;;;;;;;;;;;;;9.71;53.23;101391.50;4967179;28;7719;-75
2024/01/23 06:06:25;;;;;;;;;;;;;;;9.71;53.56;101401.72;4975287;28;6764;-75
2024/01/23 06:08:51;;;;;;;;;;;;;;;9.69;53.47;101393.94;4978942;28;7257;-73
2024/01/23 06:11:16;;;;;;;;;;;;;;;9.69;53.70;101401.63;4970865;28;7193;-75
2024/01/23 06:13:42;;;;;;;;;;;;;;;9.69;53.76;101393.94;4983493;28;6776;-74
2024/01/23 06:16:07;;;;;;;;;;;;;;;9.69;53.56;101387.94;4965247;28;6955;-74
2024/01/23 06:18:35;;;;;;;;;;;;;;;9.69;53.61;101393.94;4975463;28;8114;-73
2024/01/23 06:21:02;;;;;;;;;;;;;;;9.68;53.13;101388.72;4974909;28;6788;-74
2024/01/23 06:23:27;;;;;;;;;;;;;;;9.67;53.58;101399.75;4961816;28;7025;-73
2024/01/23 06:25:53;;;;;;;;;;;;;;;9.67;53.59;101417.69;4958009;28;7041;-75
2024/01/23 06:28:19;;;;;;;;;;;;;;;9.63;53.54;101408.00;4981957;28;6847;-74
2024/01/23 06:30:45;;;;;;;;;;;;;;;9.61;53.88;101420.72;4991793;28;7030;-73
2024/01/23 06:33:11;;;;;;;;;;;;;;;9.59;53.68;101422.25;4959904;28;6981;-75
2024/01/23 06:35:36;;;;;;;;;;;;;;;9.56;53.52;101422.97;4960267;28;7035;-73
2024/01/23 06:38:02;;;;;;;;;;;;;;;9.52;53.75;101436.31;5305871;23;7130;-77
2024/01/23 06:40:28;;;;;;;;;;;;;;;9.49;54.08;101436.09;4996159;28;7176;-75
2024/01/23 06:42:54;;;;;;;;;;;;;;;9.46;53.88;101430.75;4998853;28;6852;-76
2024/01/23 06:45:19;;;;;;;;;;;;;;;9.45;53.66;101442.69;4991160;28;6811;-75
2024/01/23 06:47:45;;;;;;;;;;;;;;;9.47;54.47;101458.16;4999426;28;6774;-75
2024/01/23 06:50:12;;;;;;;;;;;;;;;9.46;54.03;101453.78;5013452;28;7259;-77
2024/01/23 06:52:37;;;;;;;;;;;;;;;9.44;54.41;101457.91;4993545;28;7204;-75
2024/01/23 06:55:04;;;;;;;;;;;;;;;9.42;54.45;101455.28;5006595;28;7190;-75
2024/01/23 06:57:30;;;;;;;;;;;;;;;9.42;53.75;101475.75;4990674;28;6768;-75
2024/01/23 06:59:55;;;;;;;;;;;;;;;9.41;54.51;101473.06;4972609;28;8607;-75
2024/01/23 07:02:21;;;;;;;;;;;;;;;9.38;53.98;101477.97;4987912;28;6824;-75
2024/01/23 07:04:47;;;;;;;;;;;;;;;9.35;54.20;101480.31;4986911;28;7122;-77
2024/01/23 07:07:12;;;;;;;;;;;;;;;9.34;53.85;101481.09;4983176;28;6957;-78
2024/01/23 07:09:38;;;;;;;;;;;;;;;9.30;53.82;101486.00;4980463;28;7137;-75
2024/01/23 07:12:04;;;;;;;;;;;;;;;9.31;53.97;101474.06;4984181;28;7017;-75
2024/01/23 07:14:30;;;;;;;;;;;;;;;9.29;54.46;101476.53;4979387;28;6784;-75
2024/01/23 07:16:56;;;;;;;;;;;;;;;9.27;54.09;101470.44;4983873;28;7144;-75
2024/01/23 07:19:21;;;;;;;;;;;;;;;9.25;54.54;101469.41;4987994;28;6832;-75
2024/01/23 07:21:47;;;;;;;;;;;;;;;9.26;54.87;101480.56;4988959;28;6772;-75
2024/01/23 07:24:13;;;;;;;;;;;;;;;9.26;54.77;101483.97;4987552;28;6784;-76
2024/01/23 07:26:39;;;;;;;;;;;;;;;9.25;54.05;101477.09;4983058;28;7527;-75
2024/01/23 07:29:04;;;;;;;;;;;;;;;9.25;55.15;101482.22;4987590;28;8420;-75
2024/01/23 07:31:30;;;;;;;;;;;;;;;9.25;54.14;101478.78;4965072;28;6945;-75
2024/01/23 07:33:56;;;;;;;;;;;;;;;9.23;54.54;101481.22;4972052;28;7191;-76
2024/01/23 07:36:22;;;;;;;;;;;;;;;9.22;54.47;101476.88;4988597;28;7023;-75
2024/01/23 07:38:48;;;;;;;;;;;;;;;9.22;54.77;101470.88;4989211;28;6752;-75
2024/01/23 07:41:13;;;;;;;;;;;;;;;9.22;54.99;101475.97;4987570;28;7034;-75
2024/01/23 07:43:39;;;;;;;;;;;;;;;9.23;55.31;101482.91;4972905;28;7104;-75
2024/01/23 07:46:05;;;;;;;;;;;;;;;9.23;54.80;101485.47;4986913;28;6956;-75
2024/01/23 07:48:30;;;;;;;;;;;;;;;9.25;54.57;101489.88;4963981;28;7440;-75
2024/01/23 07:50:56;;;;;;;;;;;;;;;9.24;54.94;101495.78;4951201;28;8749;-75
2024/01/23 07:53:22;;;;;;;;;;;;;;;9.25;54.87;101492.44;4942381;28;7159;-75
2024/01/23 07:55:48;;;;;;;;;;;;;;;9.25;54.90;101492.44;4948835;28;7284;-76
2024/01/23 07:58:14;;;;;;;;;;;;;;;9.27;55.38;101502.78;4941644;28;7873;-75
2024/01/23 08:00:43;;;;;;;;;;;;;;;9.27;54.84;101496.03;4962936;28;7003;-75
2024/01/23 08:03:09;;;;;;;;;;;;;;;9.27;55.55;101502.78;4963340;28;7079;-75
2024/01/23 08:05:34;;;;;;;;;;;;;;;9.29;55.35;101496.13;4962518;28;6775;-75
2024/01/23 08:08:01;;;;;;;;;;;;;;;9.30;54.72;101501.34;4947505;28;6969;-74
2024/01/23 08:10:26;;;;;;;;;;;;;;;9.33;54.98;101498.13;4940437;28;7295;-75
2024/01/23 08:12:53;;;;;;;;;;;;;;;9.35;55.77;101506.78;4961151;28;7129;-75
2024/01/23 08:15:19;;;;;;;;;;;;;;;9.37;55.48;101517.16;4967442;28;6859;-75
2024/01/23 08:17:45;;;;;;;;;;;;;;;9.38;55.60;101527.47;4967012;28;6933;-75
2024/01/23 08:20:11;;;;;;;;;;;;;;;9.41;55.28;101527.69;4965963;28;6780;-76
2024/01/23 08:22:36;;;;;;;;;;;;;;;9.45;55.50;101531.34;4951310;28;6991;-76
2024/01/23 08:25:02;;;;;;;;;;;;;;;9.50;55.75;101541.91;4961427;28;6848;-75
2024/01/23 08:27:28;;;;;;;;;;;;;;;9.53;55.61;101545.56;4966812;28;6959;-75
2024/01/23 08:29:54;;;;;;;;;;;;;;;9.57;55.77;101554.38;4962696;28;6964;-75
2024/01/23 08:32:19;;;;;;;;;;;;;;;9.59;55.08;101553.69;4963810;28;6926;-76
2024/01/23 08:34:45;;;;;;;;;;;;;;;9.64;55.10;101559.13;4963741;28;7149;-76
2024/01/23 08:37:14;;;;;;;;;;;;;;;9.69;55.45;101567.16;4947963;28;6943;-76
2024/01/23 08:39:40;;;;;;;;;;;;;;;9.73;55.46;101569.13;4965589;28;6971;-76
2024/01/23 08:42:06;;;;;;;;;;;;;;;9.78;55.39;101559.22;4968213;28;6800;-76
2024/01/23 08:44:31;;;;;;;;;;;;;;;9.83;55.35;101586.91;4946278;28;7012;-76
2024/01/23 08:46:57;;;;;;;;;;;;;;;9.89;55.62;101585.56;4966893;28;6772;-76
2024/01/23 08:49:22;;;;;;;;;;;;;;;9.94;55.61;101599.56;4968144;28;6857;-75
2024/01/23 08:51:48;;;;;;;;;;;;;;;9.97;55.18;101593.00;4964566;28;6954;-76
2024/01/23 08:54:18;;;;;;;;;;;;;;;10.02;55.13;101593.31;4965385;28;6785;-76
2024/01/23 08:56:46;;;;;;;;;;;;;;;10.06;55.46;101590.19;4968314;28;7211;-76
2024/01/23 08:59:13;;;;;;;;;;;;;;;10.11;55.65;101588.81;4965986;28;7113;-75
2024/01/23 09:01:38;;;;;;;;;;;;;;;10.13;55.42;101592.38;4968330;28;7239;-75
2024/01/23 09:04:04;;;;;;;;;;;;;;;10.18;55.33;101595.25;4965530;28;6945;-76
2024/01/23 09:06:29;;;;;;;;;;;;;;;10.22;54.85;101609.16;4962736;28;6791;-76
2024/01/23 09:08:56;;;;;;;;;;;;;;;10.26;55.29;101604.38;4965258;28;6978;-76
2024/01/23 09:11:21;;;;;;;;;;;;;;;10.32;54.87;101610.72;4962196;28;6985;-76
2024/01/23 09:13:47;;;;;;;;;;;;;;;10.36;55.23;101607.56;4966026;28;7421;-76
2024/01/23 09:16:13;;;;;;;;;;;;;;;10.40;55.13;101618.13;4948547;28;6788;-76
2024/01/23 09:18:40;;;;;;;;;;;;;;;10.45;55.57;101615.03;4972140;28;6961;-76
2024/01/23 09:21:08;;;;;;;;;;;;;;;10.49;54.88;101617.00;4950353;28;8560;-75
2024/01/23 09:23:37;;;;;;;;;;;;;;;10.54;54.58;101615.66;4950266;28;7797;-76
2024/01/23 09:26:03;;;;;;;;;;;;;;;10.58;54.92;101622.75;4965821;28;7253;-76
2024/01/23 09:28:29;;;;;;;;;;;;;;;10.63;54.63;101621.41;4964620;28;6939;-76
2024/01/23 09:30:54;;;;;;;;;;;;;;;10.68;54.39;101617.47;4962064;28;7710;-75
2024/01/23 09:33:20;;;;;;;;;;;;;;;10.73;54.47;101612.63;4961890;28;8125;-76
2024/01/23 09:35:46;;;;;;;;;;;;;;;10.78;54.37;101621.53;4965700;28;6783;-76
2024/01/23 09:38:12;;;;;;;;;;;;;;;10.82;54.24;101613.25;4966819;28;6776;-76
2024/01/23 09:40:38;;;;;;;;;;;;;;;10.89;53.97;101603.41;4965863;28;7289;-76
2024/01/23 09:43:04;;;;;;;;;;;;;;;10.95;54.24;101598.66;4956779;28;7032;-76
2024/01/23 09:45:33;;;;;;;;;;;;;;;10.98;53.91;101597.19;4960678;28;7027;-76
2024/01/23 09:47:59;;;;;;;;;;;;;;;11.04;53.67;101595.84;4963582;28;6982;-76
2024/01/23 09:50:27;;;;;;;;;;;;;;;11.09;53.60;101594.44;4964835;28;6784;-76
2024/01/23 09:52:55;;;;;;;;;;;;;;;11.15;53.10;101583.69;4965740;28;7026;-76
2024/01/23 09:55:21;;;;;;;;;;;;;;;11.19;53.50;101586.53;4948755;28;7062;-76
2024/01/23 09:57:51;;;;;;;;;;;;;;;11.26;53.11;101600.69;4963315;28;6912;-76
2024/01/23 10:00:18;;;;;;;;;;;;;;;11.32;53.48;101605.31;4965093;28;7169;-76
2024/01/23 10:02:44;;;;;;;;;;;;;;;11.41;52.92;101608.47;4965447;28;7079;-76
2024/01/23 10:05:14;;;;;;;;;;;;;;;11.47;53.12;101610.53;4961098;28;7759;-76
2024/01/23 10:07:40;;;;;;;;;;;;;;;11.56;53.28;101593.16;4963646;28;8125;-76
2024/01/23 10:10:18;;;;;;;;;;;;;;;11.65;53.11;101603.09;4968073;28;6779;-76
2024/01/23 10:12:48;;;;;;;;;;;;;;;11.75;53.02;101599.44;4959750;28;6800;-76
2024/01/23 10:15:18;;;;;;;;;;;;;;;11.85;52.58;101598.31;4963877;28;6898;-75
2024/01/23 10:17:45;;;;;;;;;;;;;;;11.93;52.22;101598.03;4963253;28;8779;-76
2024/01/23 10:20:12;;;;;;;;;;;;;;;12.17;52.01;101607.16;4964753;28;7071;-75
2024/01/23 10:22:37;;;;;;;;;;;;;;;12.62;51.99;101597.84;4941768;28;6987;-75
2024/01/23 10:25:14;;;;;;;;;;;;;;;13.19;50.48;101594.22;4965949;28;7061;-75
2024/01/23 10:27:40;;;;;;;;;;;;;;;13.75;50.18;101592.09;4965635;28;6811;-75
2024/01/23 10:30:07;;;;;;;;;;;;;;;14.34;48.69;101582.31;4965218;28;6815;-75
2024/01/23 10:32:33;;;;;;;;;;;;;;;14.90;47.86;101579.94;4944759;28;6984;-76
2024/01/23 10:34:59;;;;;;;;;;;;;;;15.34;47.09;101587.19;4953769;28;7176;-76
2024/01/23 10:37:24;;;;;;;;;;;;;;;15.72;46.52;101579.44;4943240;28;8023;-76
2024/01/23 10:39:51;;;;;;;;;;;;;;;16.04;45.64;101590.41;4957626;28;6996;-75
2024/01/23 10:42:20;;;;;;;;;;;;;;;16.16;44.67;101602.97;4963685;28;7256;-75
2024/01/23 10:44:49;;;;;;;;;;;;;;;16.36;44.94;101601.28;4964480;28;6978;-75
2024/01/23 10:47:16;;;;;;;;;;;;;;;16.60;44.30;101591.09;4959318;28;6816;-75
2024/01/23 10:49:45;;;;;;;;;;;;;;;16.91;44.40;101588.91;4965011;28;6995;-75
2024/01/23 10:52:17;;;;;;;;;;;;;;;17.06;43.42;101591.25;4960427;28;7018;-75
2024/01/23 10:54:46;;;;;;;;;;;;;;;16.85;42.40;101604.16;4959966;28;6816;-75
2024/01/23 10:57:23;;;;;;;;;;;;;;;16.36;42.96;101601.28;4976335;28;6965;-75
2024/01/23 10:59:49;;;;;;;;;;;;;;;15.89;43.44;101593.16;4954929;28;7783;-75
2024/01/23 11:02:42;;;;;;;;;;;;;;;15.37;44.47;101602.81;4941681;28;7066;-75
2024/01/23 11:05:08;;;;;;;;;;;;;;;15.02;44.90;101589.09;4964934;28;7319;-75
2024/01/23 11:08:02;;;;;;;;;;;;;;;14.90;45.91;101591.97;4958339;28;6785;-75
2024/01/23 11:10:42;;;;;;;;;;;;;;;14.89;46.08;101573.00;4960395;28;6988;-75
2024/01/23 11:13:38;;;;;;;;;;;;;;;14.84;45.95;101570.22;4960517;28;6993;-75
2024/01/23 11:16:08;;;;;;;;;;;;;;;14.71;45.79;101580.72;4964096;28;6942;-73
2024/01/23 11:18:34;;;;;;;;;;;;;;;14.55;45.81;101582.50;4969882;28;6800;-74
2024/01/23 11:21:08;;;;;;;;;;;;;;;14.43;46.66;101580.19;4970715;28;6995;-74
2024/01/23 11:23:40;;;;;;;;;;;;;;;14.37;46.53;101589.31;4968947;28;6999;-74
2024/01/23 11:26:19;;;;;;;;;;;;;;;14.36;47.01;101588.44;4969928;28;7267;-73
2024/01/23 11:28:51;;;;;;;;;;;;;;;14.36;46.68;101582.38;4956392;28;7083;-74
2024/01/23 11:31:23;;;;;;;;;;;;;;;14.39;47.17;101582.53;4970236;28;7303;-74
2024/01/23 11:33:51;;;;;;;;;;;;;;;14.39;47.16;101572.22;4971624;28;7247;-74
2024/01/23 11:36:26;;;;;;;;;;;;;;;14.37;47.59;101558.34;4969502;28;6796;-74
2024/01/23 11:38:57;;;;;;;;;;;;;;;14.35;47.29;101539.34;4966357;28;6803;-76
2024/01/23 11:41:27;;;;;;;;;;;;;;;14.33;46.91;101546.13;4947963;28;7036;-73
2024/01/23 11:44:15;;;;;;;;;;;;;;;14.37;47.48;101527.41;4954992;28;6990;-72
2024/01/23 11:46:47;;;;;;;;;;;;;;;14.40;47.40;101501.78;4967888;28;7266;-72
2024/01/23 11:49:14;;;;;;;;;;;;;;;14.40;47.70;101515.56;4971659;28;6800;-72
2024/01/23 11:51:43;;;;;;;;;;;;;;;14.41;47.59;101529.34;4976069;28;6800;-72
2024/01/23 11:54:13;;;;;;;;;;;;;;;14.37;47.46;101517.09;4968362;28;6954;-74
2024/01/23 11:56:41;;;;;;;;;;;;;;;14.35;47.23;101522.19;4971125;28;6804;-74
2024/01/23 11:59:11;;;;;;;;;;;;;;;14.31;46.99;101525.41;4971026;28;6957;-74
2024/01/23 12:01:38;;;;;;;;;;;;;;;14.26;47.70;101517.44;4971315;28;6871;-73
2024/01/23 12:04:04;;;;;;;;;;;;;;;14.23;47.45;101535.34;4968824;28;7301;-73
2024/01/23 12:06:30;;;;;;;;;;;;;;;14.19;47.57;101519.63;4983502;28;7847;-75
2024/01/23 12:08:55;;;;;;;;;;;;;;;14.16;47.13;101510.94;4951398;28;6802;-75
2024/01/23 12:11:21;;;;;;;;;;;;;;;14.12;47.08;101502.97;4971324;28;7185;-73
2024/01/23 12:13:50;;;;;;;;;;;;;;;14.11;47.65;101494.34;4952480;28;6831;-72
2024/01/23 12:16:18;;;;;;;;;;;;;;;14.12;48.26;101484.94;4964939;28;7119;-74
2024/01/23 12:18:47;;;;;;;;;;;;;;;14.18;47.77;101486.94;4968550;28;6800;-74
2024/01/23 12:21:12;;;;;;;;;;;;;;;14.21;47.42;101487.97;4969853;28;6976;-75
2024/01/23 12:23:39;;;;;;;;;;;;;;;14.25;47.49;101484.72;4969799;28;6952;-73
2024/01/23 12:26:04;;;;;;;;;;;;;;;14.32;47.52;101487.63;4971232;28;6812;-73
2024/01/23 12:28:33;;;;;;;;;;;;;;;14.38;47.52;101475.00;4943100;28;7236;-72
2024/01/23 12:30:59;;;;;;;;;;;;;;;14.44;47.80;101462.44;4969455;28;7063;-74
2024/01/23 12:33:26;;;;;;;;;;;;;;;14.47;47.17;101470.31;4968692;28;7270;-74
2024/01/23 12:35:52;;;;;;;;;;;;;;;14.45;47.07;101471.94;4984095;28;6780;-75
2024/01/23 12:38:20;;;;;;;;;;;;;;;14.44;47.14;101472.75;4970037;28;6808;-72
2024/01/23 12:40:47;;;;;;;;;;;;;;;14.41;46.52;101481.22;4971413;28;6957;-74
2024/01/23 12:43:16;;;;;;;;;;;;;;;14.40;47.22;101468.25;4971373;28;6796;-73
2024/01/23 12:45:41;;;;;;;;;;;;;;;14.36;46.38;101456.00;4940742;28;13053;-74
2024/01/23 12:48:10;;;;;;;;;;;;;;;14.34;47.03;101448.22;4949936;28;7150;-75
2024/01/23 12:50:39;;;;;;;;;;;;;;;14.29;47.02;101450.56;4967548;28;6808;-74
2024/01/23 12:53:09;;;;;;;;;;;;;;;14.26;47.07;101450.41;4969357;28;6850;-74
2024/01/23 12:55:35;;;;;;;;;;;;;;;14.23;46.21;101452.84;4967143;28;7319;-73
2024/01/23 12:58:01;;;;;;;;;;;;;;;14.18;46.78;101445.69;4975635;28;6783;-73
2024/01/23 13:00:27;;;;;;;;;;;;;;;14.13;47.09;101451.47;4974004;28;6986;-74
2024/01/23 13:02:52;;;;;;;;;;;;;;;14.10;46.98;101437.53;4971926;28;6843;-75
2024/01/23 13:05:19;;;;;;;;;;;;;;;14.05;46.70;101447.66;4970751;28;6772;-74
2024/01/23 13:07:46;;;;;;;;;;;;;;;14.02;47.32;101448.38;4968798;28;6780;-74
2024/01/23 13:10:16;;;;;;;;;;;;;;;14.00;47.05;101441.38;4953863;28;6830;-74
2024/01/23 13:12:42;;;;;;;;;;;;;;;14.02;47.82;101444.91;4974466;28;6995;-73
2024/01/23 13:15:09;;;;;;;;;;;;;;;14.04;47.38;101440.69;4973426;28;6772;-75
2024/01/23 13:17:36;;;;;;;;;;;;;;;14.06;47.43;101433.94;4969528;28;8650;-75
2024/01/23 13:20:10;;;;;;;;;;;;;;;14.13;47.84;101433.44;4974150;28;6955;-74
2024/01/23 13:22:44;;;;;;;;;;;;;;;14.22;48.11;101430.44;4955478;28;6825;-73
2024/01/23 13:25:17;;;;;;;;;;;;;;;14.32;47.46;101418.00;4970356;28;6796;-73
2024/01/23 13:27:48;;;;;;;;;;;;;;;14.35;47.25;101406.16;4972687;28;7359;-73
2024/01/23 13:30:16;;;;;;;;;;;;;;;14.36;47.01;101402.75;4954719;28;7022;-75
2024/01/23 13:32:53;;;;;;;;;;;;;;;14.36;47.03;101399.28;4971576;28;7016;-75
2024/01/23 13:35:22;;;;;;;;;;;;;;;14.34;47.08;101395.75;4971392;28;6817;-73
2024/01/23 13:37:49;;;;;;;;;;;;;;;14.31;46.91;101396.47;4972195;28;6994;-75
2024/01/23 13:40:16;;;;;;;;;;;;;;;14.28;46.82;101392.03;4971274;28;7157;-75
2024/01/23 13:42:42;;;;;;;;;;;;;;;14.27;47.25;101404.88;4973402;28;6945;-73
2024/01/23 13:45:09;;;;;;;;;;;;;;;14.25;47.29;101402.22;4970355;28;6979;-74
2024/01/23 13:47:41;;;;;;;;;;;;;;;14.25;46.96;101401.34;4963787;28;6839;-73
2024/01/23 13:50:07;;;;;;;;;;;;;;;14.25;46.76;101409.94;4970629;28;6987;-74
2024/01/23 13:52:33;;;;;;;;;;;;;;;14.24;47.30;101400.44;4949232;28;6966;-74
2024/01/23 13:54:59;;;;;;;;;;;;;;;14.25;47.21;101398.78;4972746;28;6788;-74
2024/01/23 13:57:25;;;;;;;;;;;;;;;14.25;47.46;101402.22;4969952;28;6975;-73
2024/01/23 13:59:51;;;;;;;;;;;;;;;14.25;46.96;101394.47;4971457;28;6990;-75
2024/01/23 14:02:17;;;;;;;;;;;;;;;14.23;47.00;101392.63;4973468;28;7220;-73
2024/01/23 14:04:42;;;;;;;;;;;;;;;14.19;47.49;101389.00;4952262;28;7120;-73
2024/01/23 14:07:08;;;;;;;;;;;;;;;14.12;47.33;101374.94;4979047;28;6915;-73